createdAt,value
2024-05-09T00:02:32.033Z,12.10
2024-05-09T00:05:18.031Z,12.10
2024-05-09T00:08:04.025Z,12.10
2024-05-09T00:10:50.019Z,12.00
2024-05-09T00:13:35.966Z,12.00
2024-05-09T00:16:21.911Z,12.00
2024-05-09T00:19:07.995Z,11.90
2024-05-09T00:21:53.816Z,12.00
2024-05-09T00:24:39.684Z,12.00
2024-05-09T00:27:25.544Z,11.90
2024-05-09T00:30:17.489Z,12.00
2024-05-09T00:33:09.879Z,12.00
2024-05-09T00:35:57.060Z,12.00
2024-05-09T00:38:43.133Z,11.90
2024-05-09T00:41:28.943Z,12.00
2024-05-09T00:44:14.924Z,11.90
2024-05-09T00:47:00.835Z,11.90
2024-05-09T00:49:46.837Z,11.90
2024-05-09T00:52:33.200Z,11.90
2024-05-09T00:55:19.215Z,11.90
2024-05-09T00:58:05.695Z,11.90
2024-05-09T01:00:51.929Z,11.70
2024-05-09T01:03:37.829Z,11.70
2024-05-09T01:06:24.247Z,11.60
2024-05-09T01:09:09.998Z,11.60
2024-05-09T01:11:56.074Z,11.60
2024-05-09T01:14:42.012Z,11.60
2024-05-09T01:17:28.260Z,11.60
2024-05-09T01:20:20.191Z,11.60
2024-05-09T01:23:15.906Z,11.60
2024-05-09T01:26:02.665Z,11.60
2024-05-09T01:28:48.553Z,11.60
2024-05-09T01:31:34.486Z,11.60
2024-05-09T01:39:52.903Z,11.60
2024-05-09T01:42:38.918Z,11.40
2024-05-09T01:45:24.952Z,11.30
2024-05-09T01:48:11.634Z,11.30
2024-05-09T01:50:57.935Z,11.30
2024-05-09T01:53:44.782Z,11.30
2024-05-09T01:56:30.986Z,11.20
2024-05-09T01:59:17.083Z,11.30
2024-05-09T02:02:03.135Z,11.20
2024-05-09T02:04:50.083Z,11.20
2024-05-09T02:07:36.216Z,11.20
2024-05-09T02:10:26.568Z,11.20
2024-05-09T02:13:18.786Z,11.20
2024-05-09T02:16:04.779Z,11.20
2024-05-09T02:18:51.483Z,11.10
2024-05-09T02:21:37.459Z,11.10
2024-05-09T02:24:23.205Z,11.10
2024-05-09T02:27:09.261Z,10.90
2024-05-09T02:29:55.242Z,10.90
2024-05-09T02:32:41.180Z,10.90
2024-05-09T02:35:27.782Z,10.90
2024-05-09T02:38:13.785Z,10.90
2024-05-09T02:40:59.950Z,10.80
2024-05-09T02:43:45.903Z,10.80
2024-05-09T02:46:31.665Z,10.80
2024-05-09T02:49:17.703Z,10.70
2024-05-09T02:52:03.952Z,10.70
2024-05-09T02:54:49.843Z,10.70
2024-05-09T02:57:35.927Z,10.70
2024-05-09T03:00:26.764Z,10.60
2024-05-09T03:03:21.143Z,10.60
2024-05-09T03:06:07.300Z,10.50
2024-05-09T03:08:53.142Z,10.40
2024-05-09T03:11:40.570Z,10.40
2024-05-09T03:14:26.637Z,10.40
2024-05-09T03:17:12.412Z,10.40
2024-05-09T03:19:59.006Z,10.30
2024-05-09T03:22:44.979Z,10.30
2024-05-09T03:25:31.263Z,10.20
2024-05-09T03:28:17.232Z,10.20
2024-05-09T03:31:03.399Z,10.30
2024-05-09T03:33:49.809Z,10.20
2024-05-09T03:36:36.067Z,10.10
2024-05-09T03:39:22.137Z,10.10
2024-05-09T03:42:08.170Z,10.00
2024-05-09T03:44:53.905Z,10.00
2024-05-09T03:47:39.970Z,10.00
2024-05-09T03:50:33.563Z,10.00
2024-05-09T03:53:22.925Z,10.00
2024-05-09T03:56:09.175Z,10.00
2024-05-09T03:58:55.691Z,9.90
2024-05-09T04:01:41.873Z,9.90
2024-05-09T04:04:27.855Z,9.90
2024-05-09T04:07:13.598Z,9.90
2024-05-09T04:09:59.749Z,10.00
2024-05-09T04:12:45.507Z,10.00
2024-05-09T04:15:31.617Z,10.00
2024-05-09T04:18:18.593Z,10.00
2024-05-09T04:21:05.212Z,9.90
2024-05-09T04:23:51.212Z,9.90
2024-05-09T04:26:37.204Z,10.00
2024-05-09T04:29:23.038Z,9.90
2024-05-09T04:32:09.121Z,9.90
2024-05-09T04:34:54.980Z,9.90
2024-05-09T04:37:41.535Z,9.90
2024-05-09T04:40:33.213Z,9.80
2024-05-09T04:43:22.176Z,9.90
2024-05-09T04:46:07.931Z,9.80
2024-05-09T04:48:54.142Z,9.80
2024-05-09T04:51:41.951Z,9.80
2024-05-09T04:54:34.308Z,9.80
2024-05-09T04:57:22.564Z,9.80
2024-05-09T05:00:14.628Z,9.90
2024-05-09T05:03:10.524Z,9.80
2024-05-09T05:05:58.554Z,9.80
2024-05-09T05:08:44.354Z,9.80
2024-05-09T05:11:30.406Z,9.90
2024-05-09T05:14:16.286Z,9.90
2024-05-09T05:17:02.206Z,9.90
2024-05-09T05:19:48.307Z,10.00
2024-05-09T05:22:34.022Z,10.10
2024-05-09T05:25:19.899Z,10.00
2024-05-09T05:28:06.346Z,10.00
2024-05-09T05:30:52.441Z,10.00
2024-05-09T05:33:38.530Z,10.00
2024-05-09T05:36:24.365Z,10.10
2024-05-09T05:39:10.311Z,10.10
2024-05-09T05:41:56.370Z,10.20
2024-05-09T05:44:42.329Z,10.20
2024-05-09T05:47:28.379Z,10.00
2024-05-09T05:50:23.597Z,10.10
2024-05-09T05:53:13.746Z,10.00
2024-05-09T05:56:00.142Z,10.20
2024-05-09T05:58:46.411Z,10.00
2024-05-09T06:01:32.316Z,10.10
2024-05-09T06:04:18.302Z,10.10
2024-05-09T06:07:04.344Z,10.00
2024-05-09T06:09:50.564Z,10.20
2024-05-09T06:12:37.439Z,10.20
2024-05-09T06:15:23.551Z,9.90
2024-05-09T06:18:10.978Z,10.00
2024-05-09T06:20:58.053Z,10.00
2024-05-09T06:23:48.375Z,10.00
2024-05-09T06:26:34.538Z,10.00
2024-05-09T06:29:20.473Z,9.80
2024-05-09T06:32:07.108Z,9.90
2024-05-09T06:34:53.192Z,10.00
2024-05-09T06:37:38.989Z,10.20
2024-05-09T06:40:29.480Z,10.20
2024-05-09T06:43:21.552Z,10.30
2024-05-09T06:46:07.627Z,10.40
2024-05-09T06:48:54.065Z,10.50
2024-05-09T06:51:40.807Z,10.60
2024-05-09T06:54:26.673Z,10.60
2024-05-09T06:57:12.634Z,10.70
2024-05-09T07:00:00.799Z,10.60
2024-05-09T07:02:47.993Z,10.70
2024-05-09T07:05:34.143Z,10.70
2024-05-09T07:08:20.096Z,10.80
2024-05-09T07:11:06.109Z,10.90
2024-05-09T07:13:52.160Z,10.90
2024-05-09T07:16:38.418Z,10.80
2024-05-09T07:19:24.309Z,10.90
2024-05-09T07:22:10.247Z,11.10
2024-05-09T07:24:56.176Z,11.20
2024-05-09T07:27:42.052Z,11.30
2024-05-09T07:30:33.303Z,11.50
2024-05-09T07:33:23.586Z,11.60
2024-05-09T07:36:10.468Z,11.80
2024-05-09T07:38:56.358Z,11.80
2024-05-09T07:41:42.358Z,11.90
2024-05-09T07:44:30.457Z,12.00
2024-05-09T07:48:28.939Z,12.20
2024-05-09T07:53:37.176Z,12.50
2024-05-09T07:56:19.891Z,12.70
2024-05-09T07:59:07.957Z,12.80
2024-05-09T08:01:55.023Z,13.00
2024-05-09T08:04:40.882Z,13.10
2024-05-09T08:07:26.729Z,13.40
2024-05-09T08:10:15.406Z,13.70
2024-05-09T08:13:04.830Z,13.70
2024-05-09T08:15:52.468Z,14.00
2024-05-09T08:18:38.713Z,14.20
2024-05-09T08:21:25.069Z,14.40
2024-05-09T08:24:11.694Z,14.70
2024-05-09T08:26:57.735Z,14.90
2024-05-09T08:29:44.031Z,15.10
2024-05-09T08:32:32.327Z,15.30
2024-05-09T08:35:18.273Z,15.50
2024-05-09T08:38:06.296Z,15.70
2024-05-09T08:40:52.908Z,15.90
2024-05-09T08:43:40.658Z,16.00
2024-05-09T08:46:30.577Z,16.20
2024-05-09T08:49:16.691Z,16.30
2024-05-09T08:52:02.831Z,16.40
2024-05-09T08:54:48.894Z,16.70
2024-05-09T08:57:36.712Z,16.90
2024-05-09T09:00:33.413Z,17.10
2024-05-09T09:03:30.950Z,17.30
2024-05-09T09:06:21.423Z,17.40
2024-05-09T09:09:07.676Z,17.50
2024-05-09T09:11:54.657Z,17.70
2024-05-09T09:14:40.568Z,17.80
2024-05-09T09:17:26.667Z,18.10
2024-05-09T09:20:16.584Z,18.10
2024-05-09T09:23:05.148Z,18.10
2024-05-09T09:25:51.995Z,18.40
2024-05-09T09:28:38.231Z,18.50
2024-05-09T09:31:24.492Z,18.60
2024-05-09T09:34:10.536Z,18.60
2024-05-09T09:37:05.911Z,18.80
2024-05-09T09:39:52.036Z,19.00
2024-05-09T09:42:38.397Z,19.10
2024-05-09T09:45:26.610Z,19.20
2024-05-09T09:48:15.093Z,19.30
2024-05-09T09:51:01.558Z,19.40
2024-05-09T09:53:49.373Z,19.60
2024-05-09T09:56:39.509Z,19.70
2024-05-09T09:59:26.227Z,19.90
2024-05-09T10:02:13.916Z,20.00
2024-05-09T10:05:01.306Z,20.10
2024-05-09T10:07:47.792Z,20.10
2024-05-09T10:10:35.816Z,20.30
2024-05-09T10:13:33.396Z,20.40
2024-05-09T10:16:23.165Z,20.50
2024-05-09T10:19:09.353Z,20.60
2024-05-09T10:22:01.686Z,20.70
2024-05-09T10:24:52.943Z,20.70
2024-05-09T10:27:39.475Z,21.00
2024-05-09T10:30:33.816Z,21.20
2024-05-09T10:33:21.875Z,21.20
2024-05-09T10:36:14.983Z,21.20
2024-05-09T10:39:00.854Z,21.20
2024-05-09T10:41:46.759Z,21.20
2024-05-09T10:44:38.210Z,21.20
2024-05-09T10:47:25.980Z,21.40
2024-05-09T10:50:18.576Z,21.40
2024-05-09T10:53:11.528Z,21.40
2024-05-09T10:56:01.537Z,21.50
2024-05-09T10:58:48.202Z,21.60
2024-05-09T11:01:34.085Z,22.00
2024-05-09T11:04:20.515Z,22.00
2024-05-09T11:07:10.842Z,22.10
2024-05-09T11:09:56.865Z,22.10
2024-05-09T11:12:46.400Z,22.20
2024-05-09T11:15:41.903Z,22.20
2024-05-09T11:18:32.335Z,21.90
2024-05-09T11:21:21.449Z,22.10
2024-05-09T11:24:10.508Z,22.10
2024-05-09T11:27:03.485Z,22.10
2024-05-09T11:29:48.976Z,22.30
2024-05-09T11:32:38.200Z,22.70
2024-05-09T11:35:25.873Z,22.80
2024-05-09T11:38:11.705Z,22.70
2024-05-09T11:40:57.696Z,22.70
2024-05-09T11:43:43.639Z,22.70
2024-05-09T11:46:29.551Z,23.00
2024-05-09T11:49:15.734Z,23.30
2024-05-09T11:52:01.564Z,23.60
2024-05-09T11:54:47.505Z,23.70
2024-05-09T11:57:33.522Z,23.90
2024-05-09T12:00:29.062Z,24.10
2024-05-09T12:03:20.927Z,24.50
2024-05-09T12:06:06.999Z,24.30
2024-05-09T12:08:53.744Z,24.40
2024-05-09T12:11:40.139Z,24.60
2024-05-09T12:14:26.269Z,24.40
2024-05-09T12:17:13.631Z,24.60
2024-05-09T12:20:00.036Z,24.70
2024-05-09T12:22:47.647Z,24.80
2024-05-09T12:25:33.992Z,25.10
2024-05-09T12:28:20.805Z,24.80
2024-05-09T12:31:06.805Z,24.80
2024-05-09T12:33:54.678Z,25.00
2024-05-09T12:36:40.785Z,25.50
2024-05-09T12:39:26.752Z,25.50
2024-05-09T12:42:22.318Z,25.60
2024-05-09T12:45:12.644Z,25.90
2024-05-09T12:47:59.019Z,26.30
2024-05-09T12:50:45.141Z,26.50
2024-05-09T12:53:30.886Z,26.50
2024-05-09T12:56:16.916Z,26.30
2024-05-09T12:59:02.778Z,26.40
2024-05-09T13:01:48.710Z,26.50
2024-05-09T13:04:35.488Z,26.70
2024-05-09T13:07:21.743Z,26.80
2024-05-09T13:10:13.945Z,26.50
2024-05-09T13:13:05.824Z,26.40
2024-05-09T13:15:51.915Z,25.50
2024-05-09T13:18:38.055Z,25.60
2024-05-09T13:21:24.255Z,25.80
2024-05-09T13:24:10.170Z,26.10
2024-05-09T13:26:56.284Z,26.30
2024-05-09T13:29:44.212Z,26.20
2024-05-09T13:32:30.180Z,26.50
2024-05-09T13:35:16.085Z,26.60
2024-05-09T13:38:02.765Z,26.40
2024-05-09T13:40:49.382Z,26.10
2024-05-09T13:43:36.335Z,26.00
2024-05-09T13:46:22.662Z,26.30
2024-05-09T13:49:10.735Z,25.70
2024-05-09T13:51:58.246Z,25.90
2024-05-09T13:54:44.233Z,26.40
2024-05-09T13:57:30.111Z,26.80
2024-05-09T14:00:27.382Z,26.90
2024-05-09T14:03:22.140Z,27.10
2024-05-09T14:06:10.536Z,27.00
2024-05-09T14:08:57.950Z,27.00
2024-05-09T14:11:44.014Z,27.20
2024-05-09T14:14:29.837Z,27.00
2024-05-09T14:17:15.923Z,27.20
2024-05-09T14:20:01.747Z,27.10
2024-05-09T14:22:47.767Z,27.00
2024-05-09T14:25:38.661Z,27.20
2024-05-09T14:28:27.974Z,27.30
2024-05-09T14:31:14.097Z,27.10
2024-05-09T14:34:00.151Z,27.10
2024-05-09T14:36:46.458Z,27.00
2024-05-09T14:39:32.381Z,27.00
2024-05-09T14:42:18.269Z,27.20
2024-05-09T14:45:06.165Z,27.40
2024-05-09T14:47:52.419Z,27.60
2024-05-09T14:50:40.282Z,27.80
2024-05-09T14:53:28.401Z,27.60
2024-05-09T14:56:14.869Z,27.40
2024-05-09T14:59:00.618Z,27.60
2024-05-09T15:01:46.667Z,27.60
2024-05-09T15:04:32.492Z,27.50
2024-05-09T15:07:18.491Z,27.50
2024-05-09T15:10:09.055Z,27.50
2024-05-09T15:12:59.455Z,27.50
2024-05-09T15:15:45.546Z,27.50
2024-05-09T15:18:31.687Z,27.60
2024-05-09T15:21:17.842Z,27.50
2024-05-09T15:24:03.646Z,27.50
2024-05-09T15:26:49.691Z,27.60
2024-05-09T15:29:35.715Z,27.60
2024-05-09T15:32:21.630Z,27.60
2024-05-09T15:35:07.679Z,27.60
2024-05-09T15:37:53.832Z,27.50
2024-05-09T15:40:40.898Z,27.30
2024-05-09T15:43:28.069Z,27.20
2024-05-09T15:46:14.700Z,27.20
2024-05-09T15:49:01.562Z,27.20
2024-05-09T15:51:47.743Z,27.00
2024-05-09T15:54:33.755Z,27.10
2024-05-09T15:57:19.885Z,27.00
2024-05-09T16:00:12.232Z,26.80
2024-05-09T16:03:04.076Z,26.80
2024-05-09T16:05:51.808Z,26.80
2024-05-09T16:08:37.966Z,26.90
2024-05-09T16:11:24.250Z,26.60
2024-05-09T16:14:10.439Z,26.60
2024-05-09T16:16:56.505Z,26.70
2024-05-09T16:19:42.708Z,26.40
2024-05-09T16:22:28.784Z,26.20
2024-05-09T16:25:14.774Z,26.00
2024-05-09T16:28:00.891Z,25.90
2024-05-09T16:30:47.227Z,25.70
2024-05-09T16:33:33.468Z,25.60
2024-05-09T16:36:19.786Z,25.60
2024-05-09T16:39:06.049Z,25.60
2024-05-09T16:41:52.212Z,25.40
2024-05-09T16:44:38.052Z,25.40
2024-05-09T16:47:24.173Z,25.40
2024-05-09T16:50:10.775Z,25.20
2024-05-09T16:52:59.113Z,25.30
2024-05-09T16:55:45.279Z,25.20
2024-05-09T16:58:31.589Z,25.20
2024-05-09T17:01:17.575Z,25.20
2024-05-09T17:04:03.746Z,25.10
2024-05-09T17:06:51.118Z,24.90
2024-05-09T17:09:37.007Z,24.80
2024-05-09T17:12:22.850Z,24.60
2024-05-09T17:15:08.928Z,24.60
2024-05-09T17:17:55.506Z,24.60
2024-05-09T17:20:41.333Z,24.50
2024-05-09T17:23:28.162Z,24.40
2024-05-09T17:26:15.005Z,24.30
2024-05-09T17:29:01.054Z,24.10
2024-05-09T17:31:47.116Z,23.90
2024-05-09T17:34:33.393Z,23.90
2024-05-09T17:37:19.833Z,23.70
2024-05-09T17:40:14.352Z,23.50
2024-05-09T17:43:03.496Z,23.30
2024-05-09T17:45:49.908Z,23.10
2024-05-09T17:48:36.135Z,23.00
2024-05-09T17:51:22.276Z,22.90
2024-05-09T17:54:08.502Z,22.70
2024-05-09T17:56:54.557Z,22.60
2024-05-09T17:59:40.392Z,22.50
2024-05-09T18:02:26.594Z,22.30
2024-05-09T18:05:12.442Z,22.10
2024-05-09T18:07:58.440Z,22.00
2024-05-09T18:10:44.619Z,21.80
2024-05-09T18:13:31.266Z,21.70
2024-05-09T18:16:18.196Z,21.60
2024-05-09T18:19:04.790Z,21.50
2024-05-09T18:21:50.722Z,21.30
2024-05-09T18:24:36.823Z,21.20
2024-05-09T18:27:23.512Z,21.10
2024-05-09T18:30:23.740Z,20.90
2024-05-09T18:33:14.050Z,20.80
2024-05-09T18:36:00.198Z,20.70
2024-05-09T18:38:46.050Z,20.50
2024-05-09T18:41:32.288Z,20.40
2024-05-09T18:44:18.553Z,20.30
2024-05-09T18:47:05.045Z,20.20
2024-05-09T18:49:51.498Z,20.10
2024-05-09T18:52:37.897Z,20.00
2024-05-09T18:55:23.970Z,19.90
2024-05-09T18:58:10.901Z,19.80
2024-05-09T19:00:59.913Z,19.70
2024-05-09T19:03:48.486Z,19.60
2024-05-09T19:06:36.399Z,19.50
2024-05-09T19:09:23.107Z,19.40
2024-05-09T19:12:09.549Z,19.30
2024-05-09T19:14:55.505Z,19.20
2024-05-09T19:17:41.672Z,19.10
2024-05-09T19:20:33.396Z,19.10
2024-05-09T19:23:20.940Z,19.10
2024-05-09T19:26:08.535Z,19.00
2024-05-09T19:28:54.432Z,18.90
2024-05-09T19:31:40.379Z,18.90
2024-05-09T19:34:26.635Z,18.80
2024-05-09T19:37:12.608Z,18.80
2024-05-09T19:39:58.790Z,18.70
2024-05-09T19:42:44.948Z,18.70
2024-05-09T19:45:32.313Z,18.70
2024-05-09T19:48:19.164Z,18.70
2024-05-09T19:51:05.660Z,18.70
2024-05-09T19:53:51.635Z,17.20
2024-05-09T19:56:40.383Z,18.50
2024-05-09T19:59:26.785Z,18.50
2024-05-09T20:02:13.403Z,18.50
2024-05-09T20:05:02.283Z,18.20
2024-05-09T20:07:48.520Z,18.20
2024-05-09T20:10:36.235Z,18.30
2024-05-09T20:13:22.976Z,18.20
2024-05-09T20:16:09.431Z,18.10
2024-05-09T20:18:55.561Z,18.20
2024-05-09T20:21:44.705Z,18.00
2024-05-09T20:24:30.854Z,18.00
2024-05-09T20:27:16.894Z,17.90
2024-05-09T20:30:03.965Z,17.80
2024-05-09T20:32:52.686Z,17.70
2024-05-09T20:35:38.615Z,17.70
2024-05-09T20:38:24.680Z,17.60
2024-05-09T20:41:10.567Z,17.60
2024-05-09T20:44:00.513Z,17.50
2024-05-09T20:46:46.409Z,17.50
2024-05-09T20:49:32.372Z,17.60
2024-05-09T20:52:18.766Z,17.60
2024-05-09T20:55:05.111Z,17.70
2024-05-09T20:57:52.126Z,17.70
2024-05-09T21:00:41.920Z,17.70
2024-05-09T21:03:32.620Z,17.80
2024-05-09T21:06:18.981Z,17.80
2024-05-09T21:09:05.199Z,17.70
2024-05-09T21:11:51.506Z,17.70
2024-05-09T21:14:37.975Z,17.80
2024-05-09T21:17:23.877Z,17.70
2024-05-09T21:20:16.897Z,17.60
2024-05-09T21:23:06.234Z,17.60
2024-05-09T21:25:52.437Z,17.50
2024-05-09T21:28:38.842Z,17.40
2024-05-09T21:31:24.859Z,17.40
2024-05-09T21:34:11.200Z,17.30
2024-05-09T21:36:57.365Z,17.30
2024-05-09T21:39:43.776Z,17.20
2024-05-09T21:42:29.928Z,17.20
2024-05-09T21:45:15.893Z,17.20
2024-05-09T21:48:04.037Z,17.10
2024-05-09T21:50:49.981Z,17.00
2024-05-09T21:53:37.819Z,16.90
2024-05-09T21:56:23.886Z,16.80
2024-05-09T21:59:09.885Z,16.70
2024-05-09T22:01:56.020Z,16.60
2024-05-09T22:04:42.351Z,16.60
2024-05-09T22:07:28.974Z,16.60
2024-05-09T22:10:22.778Z,16.50
2024-05-09T22:13:15.639Z,16.40
2024-05-09T22:16:05.991Z,16.40
2024-05-09T22:18:52.077Z,16.30
2024-05-09T22:21:38.416Z,16.20
2024-05-09T22:24:24.363Z,16.10
2024-05-09T22:27:11.837Z,16.10
2024-05-09T22:29:57.747Z,16.10
2024-05-09T22:32:43.776Z,16.10
2024-05-09T22:35:30.293Z,16.10
2024-05-09T22:38:17.055Z,16.10
2024-05-09T22:41:08.042Z,16.00
2024-05-09T22:43:54.810Z,15.90
2024-05-09T22:46:40.743Z,15.80
2024-05-09T22:49:28.057Z,15.80
2024-05-09T22:52:14.355Z,15.90
2024-05-09T22:55:00.104Z,15.80
2024-05-09T22:57:46.655Z,16.00
2024-05-09T23:00:33.614Z,15.80
2024-05-09T23:03:21.769Z,15.80
2024-05-09T23:06:09.287Z,15.80
2024-05-09T23:08:55.313Z,15.80
2024-05-09T23:11:42.102Z,15.60
2024-05-09T23:14:28.289Z,15.60
2024-05-09T23:17:14.385Z,15.50
2024-05-09T23:20:00.667Z,15.50
2024-05-09T23:22:46.903Z,15.50
2024-05-09T23:25:32.774Z,15.50
2024-05-09T23:28:18.838Z,15.30
2024-05-09T23:31:05.234Z,15.40
2024-05-09T23:33:51.516Z,15.40
2024-05-09T23:36:38.537Z,15.20
2024-05-09T23:42:11.239Z,15.20
2024-05-09T23:44:58.438Z,15.20
2024-05-09T23:47:45.103Z,15.20
2024-05-09T23:50:35.550Z,15.20
2024-05-09T23:53:23.869Z,15.20
2024-05-09T23:56:09.679Z,15.00
2024-05-09T23:58:56.025Z,14.90
